This is the latest recevied weather packets stored in our database for station/object Kirchdorf. If no packets are shown the sender has not sent any weather packets the latest 10 day(s).
| Time | Temp. | Humidity | Pressure | Rain* | Wind** | Luminosity | Snow |
|---|---|---|---|---|---|---|---|
| 1777708931 | 17.22° C | 57% | 1023.3 hPa | 0 mm | - | - | - |
| 1777707130 | 15.56° C | 62% | 1023.6 hPa | 0 mm | - | - | - |
| 1777705333 | 13.33° C | 67% | 1023.8 hPa | 0 mm | - | - | - |
| 1777703532 | 10.56° C | 73% | 1023.8 hPa | 0 mm | - | - | - |
| 1777701731 | 8.33° C | 79% | 1024 hPa | 0 mm | - | - | - |
| 1777699931 | 6.11° C | 91% | 1023.9 hPa | 0 mm | - | - | - |
| 1777698131 | 3.89° C | 94% | 1023.7 hPa | 0 mm | - | - | - |
| 1777696331 | 2.78° C | 94% | 1023.7 hPa | 0 mm | - | - | - |
| 1777694533 | 2.78° C | 94% | 1023.8 hPa | 0 mm | - | - | - |
| 1777692731 | 3.33° C | 93% | 1023.7 hPa | 0 mm | - | - | - |
| 1777690931 | 3.33° C | 93% | 1023.7 hPa | 0 mm | - | - | - |
| 1777689134 | 3.89° C | 92% | 1023.9 hPa | 0 mm | - | - | - |
| 1777687332 | 3.89° C | 91% | 1024 hPa | 0 mm | - | - | - |
| 1777685531 | 4.44° C | 89% | 1024.1 hPa | 0 mm | - | - | - |
| 1777683731 | 5° C | 87% | 1024.1 hPa | 0 mm | - | - | - |
| 1777681929 | 5.56° C | 84% | 1024.3 hPa | 0 mm | - | - | - |
| 1777680129 | 6.11° C | 84% | 1024.5 hPa | 0 mm | - | - | - |
| 1777678330 | 6.67° C | 79% | 1024.6 hPa | 0 mm | - | - | - |
| 1777676530 | 7.78° C | 75% | 1024.8 hPa | 0 mm | - | - | - |
| 1777674730 | 8.33° C | 72% | 1024.8 hPa | 0 mm | - | - | - |
| 1777671130 | 10.56° C | 65% | 1025.1 hPa | 0 mm | - | - | - |
| 1777669330 | 11.67° C | 60% | 1025.1 hPa | 0 mm | - | - | - |
| 1777667529 | 13.33° C | 55% | 1025.3 hPa | 0 mm | - | - | - |
| 1777665732 | 13.33° C | 54% | 1025.1 hPa | 0 mm | - | - | - |
| 1777663929 | 14.44° C | 50% | 1024.9 hPa | 0 mm | - | - | - |
* Rain since midnight (hover to see other rain measurements)
** Current wind speed in m/s (hover to see current wind gust speed)